Time;durP1;ratioP1;P1;durP2;ratioP2;P2;SDS_P1;SDS_P2;PMS_P1;PMS_P2;Temp;Humidity;BMP_temperature;BMP_pressure;BME280_temperature;BME280_humidity;BME280_pressure;Samples;Min_cycle;Max_cycle;Signal;HPM_P1;HPM_P2
2022/12/07 00:01:33;;;;;;;17.83;10.20;;;;;;;2.45;100.00;101674.53;5032567;28;1195178;-85
2022/12/07 00:04:05;;;;;;;17.83;9.63;;;;;;;2.42;100.00;101674.81;5075733;28;20039;-84
2022/12/07 00:06:35;;;;;;;21.33;9.77;;;;;;;2.36;100.00;101670.91;5075786;28;20413;-84
2022/12/07 00:09:01;;;;;;;21.77;9.65;;;;;;;2.35;100.00;101671.03;5075418;28;20020;-84
2022/12/07 00:11:31;;;;;;;17.53;9.33;;;;;;;2.28;100.00;101668.91;5075416;28;20081;-84
2022/12/07 00:13:59;;;;;;;17.35;9.32;;;;;;;2.24;100.00;101675.56;5094091;28;20468;-83
2022/12/07 00:16:28;;;;;;;20.20;9.50;;;;;;;2.21;100.00;101674.97;5075354;28;20028;-84
2022/12/07 00:18:54;;;;;;;20.40;9.65;;;;;;;2.19;100.00;101668.94;5093653;28;20073;-83
2022/12/07 00:21:33;;;;;;;18.40;9.73;;;;;;;2.15;100.00;101671.03;5075360;28;20050;-84
2022/12/07 00:24:01;;;;;;;22.45;9.60;;;;;;;2.12;100.00;101659.75;5075665;28;20051;-84
2022/12/07 00:26:30;;;;;;;24.63;10.48;;;;;;;2.07;100.00;101663.69;5075424;28;20071;-84
2022/12/07 00:28:59;;;;;;;20.10;10.13;;;;;;;2.05;100.00;101660.31;5075284;28;20089;-84
2022/12/07 00:31:27;;;;;;;22.27;10.25;;;;;;;2.04;100.00;101663.97;5074832;28;20147;-84
2022/12/07 00:33:52;;;;;;;22.80;10.73;;;;;;;2.04;100.00;101660.47;5075270;28;20093;-84
2022/12/07 00:36:20;;;;;;;18.55;10.82;;;;;;;2.04;100.00;101645.25;5075197;28;20032;-84
2022/12/07 00:38:46;;;;;;;19.05;11.27;;;;;;;2.07;100.00;101646.81;5075063;28;20028;-84
2022/12/07 00:41:17;;;;;;;19.35;10.60;;;;;;;2.06;100.00;101653.13;5075188;28;20035;-84
2022/12/07 00:43:44;;;;;;;17.15;10.43;;;;;;;2.05;100.00;101656.78;5078869;28;20020;-85
2022/12/07 00:46:11;;;;;;;23.08;11.32;;;;;;;2.05;100.00;101651.44;5078669;28;20124;-85
2022/12/07 00:48:36;;;;;;;19.10;10.75;;;;;;;2.06;100.00;101653.97;5078745;28;20454;-84
2022/12/07 00:51:03;;;;;;;22.07;10.77;;;;;;;2.09;100.00;101655.53;5062323;28;20042;-84
2022/12/07 00:53:29;;;;;;;20.25;11.18;;;;;;;2.09;100.00;101652.84;5078604;28;20024;-85
2022/12/07 00:55:57;;;;;;;19.07;10.63;;;;;;;2.07;100.00;101652.16;5078631;28;20081;-84
2022/12/07 00:58:23;;;;;;;19.45;10.07;;;;;;;2.04;100.00;101661.31;5096597;28;20020;-84
2022/12/07 01:00:49;;;;;;;20.48;10.73;;;;;;;2.00;100.00;101656.38;5078241;28;20066;-84
2022/12/07 01:03:15;;;;;;;23.47;10.43;;;;;;;1.94;100.00;101647.06;5074768;28;20082;-84
2022/12/07 01:05:56;;;;;;;19.52;9.68;;;;;;;1.90;100.00;101656.34;5074759;28;20274;-84
2022/12/07 01:08:22;;;;;;;19.55;10.25;;;;;;;1.87;100.00;101654.78;5076066;28;20162;-84
2022/12/07 01:10:48;;;;;;;15.85;9.50;;;;;;;1.84;100.00;101649.72;5074988;28;20115;-84
2022/12/07 01:13:15;;;;;;;18.40;9.73;;;;;;;1.84;100.00;101657.75;5058203;28;20089;-83
2022/12/07 01:15:44;;;;;;;19.10;10.90;;;;;;;1.82;100.00;101657.03;5075681;28;20123;-84
2022/12/07 01:18:12;;;;;;;14.90;9.18;;;;;;;1.84;100.00;101655.06;5042072;28;20102;-84
2022/12/07 01:20:37;;;;;;;17.33;9.13;;;;;;;1.87;100.00;101652.09;5058077;28;20032;-84
2022/12/07 01:23:06;;;;;;;19.23;9.60;;;;;;;1.86;100.00;101650.44;5076900;28;20169;-84
2022/12/07 01:25:31;;;;;;;21.02;10.52;;;;;;;1.92;100.00;101657.06;5075725;28;20025;-85
2022/12/07 01:27:56;;;;;;;19.50;10.37;;;;;;;1.95;100.00;101651.44;5057914;28;20499;-84
2022/12/07 01:30:22;;;;;;;25.07;10.53;;;;;;;2.01;100.00;101647.34;5074579;28;20074;-84
2022/12/07 01:32:47;;;;;;;17.20;9.52;;;;;;;2.07;100.00;101653.00;5057863;28;20090;-84
2022/12/07 01:35:13;;;;;;;21.35;10.35;;;;;;;2.12;100.00;101643.69;5074497;28;20033;-84
2022/12/07 01:37:39;;;;;;;19.53;10.33;;;;;;;2.17;100.00;101646.78;5057824;28;20028;-84
2022/12/07 01:40:07;;;;;;;20.30;11.10;;;;;;;2.24;100.00;101647.91;5074359;28;20435;-84
2022/12/07 01:42:33;;;;;;;17.17;10.17;;;;;;;2.30;100.00;101651.88;5074036;28;20029;-84
2022/12/07 01:45:17;;;;;;;20.63;10.18;;;;;;;2.33;100.00;101663.13;5074273;28;20033;-84
2022/12/07 01:47:53;;;;;;;20.90;10.15;;;;;;;2.30;100.00;101663.41;5074204;28;20137;-84
2022/12/07 01:50:20;;;;;;;18.10;10.13;;;;;;;2.32;100.00;101655.22;5074529;28;20055;-84
2022/12/07 01:52:49;;;;;;;20.23;10.38;;;;;;;2.34;100.00;101664.00;5074390;28;20064;-84
2022/12/07 01:55:15;;;;;;;20.23;10.13;;;;;;;2.34;100.00;101646.09;5073182;28;20031;-84
2022/12/07 01:57:45;;;;;;;20.98;11.07;;;;;;;2.37;100.00;101653.84;5074062;28;20119;-84
2022/12/07 02:00:12;;;;;;;18.55;10.07;;;;;;;2.39;100.00;101648.31;5074204;28;20024;-84
2022/12/07 02:02:52;;;;;;;18.00;9.90;;;;;;;2.35;100.00;101644.25;5073653;28;20056;-84
2022/12/07 02:05:19;;;;;;;17.98;9.63;;;;;;;2.33;100.00;101646.22;5073929;28;20035;-84
2022/12/07 02:07:47;;;;;;;17.35;9.45;;;;;;;2.27;100.00;101632.44;5073866;28;20032;-84
2022/12/07 02:10:18;;;;;;;19.70;9.95;;;;;;;2.30;100.00;101641.16;5074082;28;20031;-84
2022/12/07 02:12:47;;;;;;;21.42;10.13;;;;;;;2.34;100.00;101639.88;5075389;28;20028;-84
2022/12/07 02:15:13;;;;;;;18.42;10.57;;;;;;;2.38;100.00;101647.50;5073998;28;20381;-84
2022/12/07 02:17:49;;;;;;;23.20;10.10;;;;;;;2.40;100.00;101640.16;5074192;28;20028;-84
2022/12/07 02:20:27;;;;;;;19.30;9.65;;;;;;;2.41;100.00;101644.53;5073800;28;20051;-84
2022/12/07 02:23:30;;;;;;;21.83;9.52;;;;;;;2.38;100.00;101649.34;5074212;28;20036;-84
2022/12/07 02:26:17;;;;;;;19.50;9.23;;;;;;;2.30;100.00;101635.81;5073412;28;20111;-84
2022/12/07 02:28:57;;;;;;;14.63;8.77;;;;;;;2.26;100.00;101645.97;5073513;28;20059;-84
2022/12/07 02:31:28;;;;;;;21.42;8.85;;;;;;;2.20;100.00;101635.78;5073987;28;20032;-85
2022/12/07 02:34:09;;;;;;;14.80;8.77;;;;;;;2.21;100.00;101643.69;5073706;28;20041;-84
2022/12/07 02:36:40;;;;;;;17.48;9.25;;;;;;;2.18;100.00;101635.94;5073667;28;20173;-84
2022/12/07 02:39:06;;;;;;;13.18;8.52;;;;;;;2.14;100.00;101636.34;5074236;28;20028;-84
2022/12/07 02:41:38;;;;;;;16.52;8.88;;;;;;;2.06;100.00;101637.91;5073751;28;20059;-84
2022/12/07 02:44:09;;;;;;;18.17;8.77;;;;;;;1.99;100.00;101639.44;5073517;28;20031;-83
2022/12/07 02:46:47;;;;;;;17.17;8.10;;;;;;;1.93;100.00;101635.53;5073228;28;20037;-84
2022/12/07 02:49:12;;;;;;;15.13;8.63;;;;;;;1.95;100.00;101631.84;5072848;28;20029;-84
2022/12/07 02:51:43;;;;;;;17.37;9.37;;;;;;;2.02;100.00;101632.97;5073288;28;20354;-84
2022/12/07 02:54:19;;;;;;;15.98;8.95;;;;;;;2.06;100.00;101632.56;5073250;28;20032;-84
2022/12/07 02:56:44;;;;;;;13.30;8.27;;;;;;;2.13;100.00;101640.00;5072685;28;20016;-84
2022/12/07 02:59:47;;;;;;;15.20;9.03;;;;;;;2.12;100.00;101636.50;5074666;28;20457;-84
2022/12/07 03:02:41;;;;;;;17.20;8.05;;;;;;;2.06;100.00;101637.06;5072525;28;20048;-84
2022/12/07 03:05:12;;;;;;;16.25;7.97;;;;;;;1.99;100.00;101639.44;5072799;28;20056;-84
2022/12/07 03:07:44;;;;;;;15.93;8.15;;;;;;;1.96;100.00;101646.91;5073138;28;20024;-84
2022/12/07 03:10:29;;;;;;;9.68;7.45;;;;;;;1.93;100.00;101645.34;5072778;28;20082;-86
2022/12/07 03:13:06;;;;;;;16.02;8.00;;;;;;;1.89;100.00;101642.13;5072703;28;20052;-85
2022/12/07 03:15:40;;;;;;;16.02;7.88;;;;;;;1.87;100.00;101646.75;5073575;28;20094;-85
2022/12/07 03:18:08;;;;;;;19.13;8.60;;;;;;;1.84;100.00;101648.88;5074018;28;20032;-85
2022/12/07 03:20:37;;;;;;;14.18;7.85;;;;;;;1.80;100.00;101650.13;5072540;28;20119;-85
2022/12/07 03:23:06;;;;;;;13.40;7.38;;;;;;;1.73;100.00;101645.34;5072507;28;20028;-85
2022/12/07 03:25:35;;;;;;;14.35;8.02;;;;;;;1.74;100.00;101646.16;5072490;28;20036;-85
2022/12/07 03:28:08;;;;;;;15.65;7.53;;;;;;;1.75;100.00;101631.81;5072788;28;20047;-85
2022/12/07 03:30:46;;;;;;;21.02;8.05;;;;;;;1.75;100.00;101632.66;5072833;28;20028;-85
2022/12/07 03:33:21;;;;;;;21.05;7.90;;;;;;;1.73;100.00;101628.44;5072238;28;20029;-85
2022/12/07 03:36:19;;;;;;;17.90;7.80;;;;;;;1.71;100.00;101636.63;5072491;28;20135;-85
2022/12/07 03:38:56;;;;;;;14.27;7.10;;;;;;;1.72;100.00;101630.25;5072976;28;20028;-85
2022/12/07 03:41:26;;;;;;;17.27;7.82;;;;;;;1.83;100.00;101641.81;5072417;28;20037;-85
2022/12/07 03:43:54;;;;;;;13.40;7.43;;;;;;;1.88;100.00;101628.88;5072399;28;20028;-85
2022/12/07 03:46:42;;;;;;;19.15;7.95;;;;;;;1.92;100.00;101633.81;5072621;28;20036;-85
2022/12/07 03:49:18;;;;;;;15.27;7.18;;;;;;;1.94;100.00;101631.00;5072656;28;20028;-84
2022/12/07 03:52:18;;;;;;;14.80;7.68;;;;;;;1.95;100.00;101631.84;5072630;28;20039;-85
2022/12/07 03:54:59;;;;;;;14.63;7.10;;;;;;;2.00;100.00;101625.09;5019541;28;20036;-85
2022/12/07 03:57:27;;;;;;;12.93;6.75;;;;;;;2.05;100.00;101638.91;5071924;28;20473;-86
2022/12/07 03:59:57;;;;;;;16.88;7.60;;;;;;;2.05;100.00;101638.03;5072406;28;20032;-85
2022/12/07 04:02:26;;;;;;;18.83;7.00;;;;;;;2.06;100.00;101637.06;5072849;28;20052;-85
2022/12/07 04:04:51;;;;;;;15.10;7.43;;;;;;;2.06;100.00;101632.56;5072365;28;20479;-85
2022/12/07 04:07:17;;;;;;;21.67;7.82;;;;;;;2.12;100.00;101633.81;5073419;28;20115;-87
2022/12/07 04:09:42;;;;;;;17.20;7.20;;;;;;;2.14;100.00;101629.19;5072023;28;20032;-85
2022/12/07 04:12:08;;;;;;;16.47;7.07;;;;;;;2.20;100.00;101625.94;5071988;28;20031;-86
2022/12/07 04:14:36;;;;;;;12.48;6.80;;;;;;;2.25;100.00;101622.84;5071790;28;20029;-85
2022/12/07 04:17:02;;;;;;;17.37;7.97;;;;;;;2.27;100.00;101627.06;5055886;28;20025;-85
2022/12/07 04:19:30;;;;;;;16.92;7.53;;;;;;;2.33;100.00;101627.47;5075809;28;20039;-84
2022/12/07 04:21:57;;;;;;;18.25;8.10;;;;;;;2.34;100.00;101631.84;5075841;28;20086;-85
2022/12/07 04:24:22;;;;;;;17.58;8.02;;;;;;;2.32;100.00;101634.69;5076055;28;20396;-85
2022/12/07 04:26:48;;;;;;;14.10;7.65;;;;;;;2.32;100.00;101626.66;5076466;28;20032;-86
2022/12/07 04:29:15;;;;;;;19.47;7.67;;;;;;;2.34;100.00;101626.50;5075573;28;20029;-85
2022/12/07 04:31:43;;;;;;;15.88;7.75;;;;;;;2.37;100.00;101620.84;5075377;28;20170;-85
2022/12/07 04:34:10;;;;;;;21.90;9.18;;;;;;;2.40;100.00;101618.72;5059211;28;20123;-85
2022/12/07 04:36:37;;;;;;;14.63;8.10;;;;;;;2.40;100.00;101610.69;5075592;28;20116;-85
2022/12/07 04:39:03;;;;;;;13.85;7.78;;;;;;;2.42;100.00;101614.09;5075152;28;20036;-85
2022/12/07 04:41:29;;;;;;;21.05;8.55;;;;;;;2.47;100.00;101619.00;5075102;28;20442;-85
2022/12/07 04:44:03;;;;;;;17.00;8.37;;;;;;;2.52;100.00;101613.22;5075833;28;20076;-85
2022/12/07 04:46:30;;;;;;;18.58;8.65;;;;;;;2.53;100.00;101617.59;5075398;28;20111;-85
2022/12/07 04:48:56;;;;;;;16.75;8.07;;;;;;;2.55;100.00;101613.75;5075417;28;20040;-85
2022/12/07 04:51:28;;;;;;;16.63;9.47;;;;;;;2.58;100.00;101609.97;5075021;28;20451;-85
2022/12/07 04:53:54;;;;;;;16.50;7.97;;;;;;;2.63;100.00;101618.44;5075183;28;20036;-85
2022/12/07 04:56:20;;;;;;;21.00;8.80;;;;;;;2.66;100.00;101617.28;5076219;28;20033;-85
2022/12/07 04:58:47;;;;;;;20.02;9.27;;;;;;;2.69;100.00;101616.97;5075029;28;20025;-85
2022/12/07 05:01:14;;;;;;;18.25;8.10;;;;;;;2.69;100.00;101612.47;5075101;28;20044;-85
2022/12/07 05:03:39;;;;;;;15.33;7.83;;;;;;;2.70;100.00;101611.50;5093896;28;20052;-85
2022/12/07 05:06:06;;;;;;;18.25;9.65;;;;;;;2.70;100.00;101611.50;5062277;28;20376;-84
2022/12/07 05:08:32;;;;;;;14.40;7.77;;;;;;;2.67;100.00;101600.22;5078850;28;20043;-85
2022/12/07 05:10:58;;;;;;;17.00;7.45;;;;;;;2.70;100.00;101602.59;5061402;28;20028;-84
2022/12/07 05:13:24;;;;;;;14.00;8.30;;;;;;;2.67;100.00;101601.03;5077981;28;20070;-85
2022/12/07 05:15:57;;;;;;;14.77;7.73;;;;;;;2.68;100.00;101600.06;5061075;28;20059;-86
2022/12/07 05:18:23;;;;;;;15.55;7.63;;;;;;;2.70;100.00;101603.47;5078827;28;20432;-85
2022/12/07 05:20:49;;;;;;;17.98;7.55;;;;;;;2.71;100.00;101604.28;5078441;28;20039;-86
2022/12/07 05:23:14;;;;;;;17.10;7.00;;;;;;;2.71;100.00;101598.94;5077764;28;20038;-85
2022/12/07 05:25:40;;;;;;;16.00;7.10;;;;;;;2.69;100.00;101601.75;5061717;28;20085;-85
2022/12/07 05:28:05;;;;;;;16.67;6.00;;;;;;;2.72;100.00;101600.63;5061792;28;20029;-85
2022/12/07 05:30:31;;;;;;;16.40;6.77;;;;;;;2.71;100.00;101604.28;5077534;28;20032;-85
2022/12/07 05:32:57;;;;;;;16.38;6.60;;;;;;;2.66;100.00;101602.06;5078190;28;20043;-85
2022/12/07 05:35:24;;;;;;;17.23;6.35;;;;;;;2.65;100.00;101610.25;5077912;28;20020;-85
2022/12/07 05:37:52;;;;;;;11.25;5.95;;;;;;;2.56;100.00;101599.38;5077522;28;20024;-85
2022/12/07 05:40:18;;;;;;;17.20;5.60;;;;;;;2.53;100.00;101596.16;5078269;28;20065;-85
2022/12/07 05:42:44;;;;;;;7.60;5.07;;;;;;;2.45;100.00;101596.88;5078000;28;20024;-85
2022/12/07 05:45:11;;;;;;;11.57;4.80;;;;;;;2.36;100.00;101593.25;5077368;28;20027;-84
2022/12/07 05:47:37;;;;;;;12.32;4.72;;;;;;;2.31;100.00;101594.66;5077658;28;20493;-85
2022/12/07 05:50:07;;;;;;;15.68;5.10;;;;;;;2.24;100.00;101587.19;5061691;28;20032;-85
2022/12/07 05:52:35;;;;;;;13.48;4.70;;;;;;;2.20;100.00;101590.28;5077213;28;20178;-85
2022/12/07 05:55:00;;;;;;;10.32;5.40;;;;;;;2.16;100.00;101594.25;5077530;28;20032;-85
2022/12/07 05:57:28;;;;;;;10.60;4.53;;;;;;;2.12;100.00;101585.63;5077316;28;20024;-86
2022/12/07 05:59:59;;;;;;;13.80;5.18;;;;;;;2.07;100.00;101593.25;5060399;28;20024;-86
2022/12/07 06:02:27;;;;;;;14.30;5.80;;;;;;;2.04;100.00;101594.38;5073605;28;20067;-85
2022/12/07 06:04:52;;;;;;;12.93;4.97;;;;;;;1.95;100.00;101591.69;5057262;28;20035;-85
2022/12/07 06:07:21;;;;;;;13.00;5.73;;;;;;;1.91;100.00;101596.50;5057760;28;20040;-85
2022/12/07 06:09:46;;;;;;;15.20;5.90;;;;;;;1.88;100.00;101597.59;5057524;28;20032;-84
2022/12/07 06:14:57;;;;;;;14.40;5.57;;;;;;;1.83;100.00;101597.19;5075618;28;20063;-85
2022/12/07 06:17:26;;;;;;;18.70;6.35;;;;;;;1.81;100.00;101598.31;5057868;28;20028;-85
2022/12/07 06:19:51;;;;;;;14.40;5.47;;;;;;;1.79;100.00;101594.91;5073690;28;20036;-85
2022/12/07 06:22:17;;;;;;;13.38;5.65;;;;;;;1.74;100.00;101598.88;5075112;28;20032;-85
2022/12/07 06:24:43;;;;;;;15.60;5.93;;;;;;;1.72;100.00;101602.66;5074839;28;20028;-83
2022/12/07 06:27:09;;;;;;;17.38;5.57;;;;;;;1.66;100.00;101595.19;5040145;28;20393;-84
2022/12/07 06:29:34;;;;;;;15.77;5.53;;;;;;;1.62;100.00;101599.97;5073122;28;20036;-84
2022/12/07 06:32:00;;;;;;;17.27;5.90;;;;;;;1.58;100.00;101604.75;5073286;28;20024;-85
2022/12/07 06:34:26;;;;;;;14.53;7.50;;;;;;;1.56;100.00;101601.34;5074682;28;20033;-84
2022/12/07 06:36:54;;;;;;;15.00;7.22;;;;;;;1.58;100.00;101601.25;5073237;28;20056;-84
2022/12/07 06:39:22;;;;;;;13.50;6.32;;;;;;;1.59;100.00;101602.91;5056236;28;20043;-85
2022/12/07 06:41:48;;;;;;;26.58;11.63;;;;;;;1.64;100.00;101605.19;5072388;28;20477;-84
2022/12/07 06:44:14;;;;;;;17.97;8.53;;;;;;;1.62;100.00;101605.31;5039605;28;20039;-85
2022/12/07 06:46:39;;;;;;;20.42;9.13;;;;;;;1.63;100.00;101607.00;5073809;28;20024;-84
2022/12/07 06:49:05;;;;;;;17.57;7.70;;;;;;;1.65;100.00;101602.38;5072600;28;20025;-84
2022/12/07 06:51:40;;;;;;;18.73;7.32;;;;;;;1.66;100.00;101600.56;5056263;28;20032;-84
2022/12/07 06:54:07;;;;;;;20.77;6.77;;;;;;;1.65;100.00;101597.00;5072963;28;20059;-83
2022/12/07 06:56:32;;;;;;;14.98;6.45;;;;;;;1.66;100.00;101601.38;5056205;28;20032;-84
2022/12/07 06:58:58;;;;;;;18.90;6.77;;;;;;;1.66;100.00;101600.56;5073455;28;20032;-84
2022/12/07 07:01:23;;;;;;;19.50;6.78;;;;;;;1.62;100.00;101599.97;5056051;28;20036;-84
2022/12/07 07:03:49;;;;;;;12.63;6.90;;;;;;;1.66;100.00;101598.72;5072946;28;20052;-85
2022/12/07 07:06:15;;;;;;;17.33;7.30;;;;;;;1.64;100.00;101599.81;5072610;28;20066;-83
2022/12/07 07:08:43;;;;;;;16.15;7.03;;;;;;;1.61;100.00;101594.75;5072875;28;20032;-83
2022/12/07 07:11:11;;;;;;;16.58;6.90;;;;;;;1.56;100.00;101600.53;5072501;28;20061;-83
2022/12/07 07:13:37;;;;;;;16.92;6.88;;;;;;;1.50;100.00;101615.28;5072420;28;20111;-83
2022/12/07 07:16:05;;;;;;;22.58;7.45;;;;;;;1.50;100.00;101617.13;5072279;28;20203;-83
2022/12/07 07:18:31;;;;;;;22.48;7.40;;;;;;;1.53;100.00;101612.34;5072379;28;20038;-83
2022/12/07 07:20:56;;;;;;;14.10;7.50;;;;;;;1.57;100.00;101616.44;5072304;28;20036;-84
2022/12/07 07:23:22;;;;;;;11.80;7.27;;;;;;;1.56;100.00;101612.06;5071776;28;20033;-83
2022/12/07 07:25:48;;;;;;;15.43;7.57;;;;;;;1.53;100.00;101608.81;5072148;28;20063;-83
2022/12/07 07:28:14;;;;;;;12.63;7.68;;;;;;;1.52;100.00;101615.16;5071706;28;20033;-83
2022/12/07 07:30:39;;;;;;;14.98;7.60;;;;;;;1.50;100.00;101609.94;5071840;28;20029;-83
2022/12/07 07:33:05;;;;;;;21.00;7.67;;;;;;;1.55;100.00;101622.91;5072069;28;20358;-84
2022/12/07 07:35:32;;;;;;;17.23;7.47;;;;;;;1.55;100.00;101612.19;5038583;28;20044;-83
2022/12/07 07:37:58;;;;;;;14.73;8.57;;;;;;;1.57;100.00;101613.75;5071786;28;20039;-83
2022/12/07 07:40:25;;;;;;;13.77;7.43;;;;;;;1.62;100.00;101615.19;5072969;28;20024;-84
2022/12/07 07:42:52;;;;;;;18.90;8.38;;;;;;;1.65;100.00;101622.94;5073058;28;20035;-84
2022/12/07 07:45:18;;;;;;;19.60;7.35;;;;;;;1.65;100.00;101620.25;5071595;28;20044;-83
2022/12/07 07:47:44;;;;;;;12.70;7.60;;;;;;;1.64;100.00;101621.22;5072332;28;20033;-83
2022/12/07 07:50:10;;;;;;;15.63;7.60;;;;;;;1.59;100.00;101616.28;5071977;28;20032;-83
2022/12/07 07:52:35;;;;;;;14.50;7.03;;;;;;;1.58;100.00;101611.94;5074392;28;20071;-83
2022/12/07 07:55:00;;;;;;;17.52;7.88;;;;;;;1.54;100.00;101622.06;5076264;28;20273;-83
2022/12/07 07:57:27;;;;;;;15.17;6.93;;;;;;;1.56;100.00;101617.41;5058987;28;20072;-83
2022/12/07 07:59:52;;;;;;;13.60;7.00;;;;;;;1.57;100.00;101615.59;5059585;28;20078;-83
2022/12/07 08:02:19;;;;;;;13.53;6.83;;;;;;;1.57;100.00;101623.63;5075812;28;20052;-83
2022/12/07 08:04:45;;;;;;;23.92;9.02;;;;;;;1.56;100.00;101619.25;5077754;28;20054;-83
2022/12/07 08:07:11;;;;;;;15.95;6.65;;;;;;;1.51;100.00;101616.16;5076368;28;20033;-83
2022/12/07 08:09:37;;;;;;;17.48;6.72;;;;;;;1.53;100.00;101627.53;5076031;28;20043;-84
2022/12/07 08:12:03;;;;;;;14.63;6.97;;;;;;;1.54;100.00;101626.56;5075976;28;20115;-84
2022/12/07 08:14:28;;;;;;;22.73;8.30;;;;;;;1.54;100.00;101627.41;5059058;28;20127;-84
2022/12/07 08:16:54;;;;;;;22.55;8.52;;;;;;;1.55;100.00;101626.44;5059821;28;20033;-83
2022/12/07 08:19:19;;;;;;;17.70;8.13;;;;;;;1.56;100.00;101629.94;5075508;28;20032;-83
2022/12/07 08:21:45;;;;;;;18.03;8.10;;;;;;;1.57;100.00;101632.47;5075794;28;20033;-83
2022/12/07 08:24:10;;;;;;;20.20;7.10;;;;;;;1.62;100.00;101634.75;5043121;28;20082;-84
2022/12/07 08:26:36;;;;;;;18.80;8.77;;;;;;;1.70;100.00;101650.97;5058813;28;20078;-83
2022/12/07 08:29:01;;;;;;;21.10;8.87;;;;;;;1.74;100.00;101636.34;5075707;28;20408;-83
2022/12/07 08:31:28;;;;;;;21.45;10.10;;;;;;;1.80;100.00;101636.75;5075596;28;20040;-83
2022/12/07 08:33:54;;;;;;;25.88;9.70;;;;;;;1.85;100.00;101637.19;5058797;28;20463;-84
2022/12/07 08:36:19;;;;;;;16.63;8.35;;;;;;;1.92;100.00;101651.72;5075260;28;20112;-83
2022/12/07 08:38:45;;;;;;;25.83;8.60;;;;;;;2.00;100.00;101645.66;5059472;28;20059;-83
2022/12/07 08:41:10;;;;;;;14.02;8.07;;;;;;;2.04;100.00;101647.91;5075457;28;20033;-83
2022/12/07 08:43:37;;;;;;;17.40;7.77;;;;;;;2.10;100.00;101652.72;5058877;28;20123;-83
2022/12/07 08:46:07;;;;;;;16.95;6.82;;;;;;;2.24;100.00;101659.50;5075503;28;20039;-84
2022/12/07 08:48:35;;;;;;;21.73;6.95;;;;;;;2.37;100.00;101653.00;5075228;28;20047;-84
2022/12/07 08:51:02;;;;;;;17.05;7.20;;;;;;;2.52;100.00;101646.19;5076361;28;20032;-84
2022/12/07 08:53:29;;;;;;;12.68;5.95;;;;;;;2.60;100.00;101653.56;5074944;28;20081;-83
2022/12/07 08:55:56;;;;;;;12.07;5.88;;;;;;;2.68;100.00;101647.47;5076516;28;20435;-83
2022/12/07 08:58:22;;;;;;;17.65;6.05;;;;;;;2.79;100.00;101639.25;5075234;28;20199;-84
2022/12/07 09:00:47;;;;;;;13.60;5.80;;;;;;;2.88;100.00;101635.72;5041820;28;20097;-83
2022/12/07 09:03:13;;;;;;;13.67;5.40;;;;;;;2.97;100.00;101629.47;5074214;28;20511;-83
2022/12/07 09:05:41;;;;;;;11.60;5.70;;;;;;;3.06;100.00;101641.16;5058498;28;20275;-84
2022/12/07 09:08:07;;;;;;;10.27;4.90;;;;;;;3.11;100.00;101640.72;5074842;28;20033;-85
2022/12/07 09:10:33;;;;;;;12.35;5.03;;;;;;;3.15;100.00;101632.22;5075130;28;20037;-85
2022/12/07 09:13:00;;;;;;;12.10;4.83;;;;;;;3.24;100.00;101635.00;5075684;28;20115;-84
2022/12/07 09:15:27;;;;;;;13.63;4.78;;;;;;;3.28;100.00;101631.06;5058273;28;20052;-83
2022/12/07 09:17:53;;;;;;;14.02;5.10;;;;;;;3.24;100.00;101632.34;5074926;28;20024;-83
2022/12/07 09:20:18;;;;;;;10.40;5.10;;;;;;;3.24;100.00;101622.44;5074379;28;20016;-83
2022/12/07 09:22:44;;;;;;;11.30;4.50;;;;;;;3.37;100.00;101632.00;5076796;28;20279;-83
2022/12/07 09:25:09;;;;;;;8.27;4.47;;;;;;;3.40;100.00;101631.69;5074920;28;20032;-83
2022/12/07 09:27:35;;;;;;;9.47;4.27;;;;;;;3.41;100.00;101628.88;5074466;28;20389;-83
2022/12/07 09:30:00;;;;;;;10.98;3.90;;;;;;;3.44;100.00;101625.03;5074534;28;20115;-83
2022/12/07 09:32:28;;;;;;;12.63;4.30;;;;;;;3.37;100.00;101635.53;5057715;28;20131;-84
2022/12/07 09:34:53;;;;;;;17.15;4.15;;;;;;;3.29;100.00;101630.03;5058346;28;20487;-83
2022/12/07 09:37:19;;;;;;;13.93;3.60;;;;;;;3.20;100.00;101634.44;5075474;28;20024;-83
2022/12/07 09:39:44;;;;;;;9.87;3.70;;;;;;;3.14;100.00;101635.03;5057556;28;20064;-84
2022/12/07 09:42:29;;;;;;;12.75;3.90;;;;;;;3.07;100.00;101637.50;5074941;28;20035;-83
2022/12/07 09:44:55;;;;;;;9.23;4.00;;;;;;;3.07;100.00;101633.94;5075689;28;20137;-83
2022/12/07 09:47:21;;;;;;;12.55;4.05;;;;;;;3.12;100.00;101635.19;5074122;28;20441;-83
2022/12/07 09:49:46;;;;;;;9.65;4.20;;;;;;;3.19;100.00;101630.09;5040850;28;20033;-83
2022/12/07 09:52:15;;;;;;;9.50;4.23;;;;;;;3.26;100.00;101630.34;5057469;28;20040;-83
2022/12/07 09:54:45;;;;;;;8.48;4.22;;;;;;;3.38;100.00;101629.16;5074003;28;20024;-83
2022/12/07 09:57:14;;;;;;;11.13;4.50;;;;;;;3.62;100.00;101633.13;5073751;28;20459;-85
2022/12/07 09:59:40;;;;;;;7.37;4.20;;;;;;;3.85;100.00;101638.91;5075266;28;20107;-84
2022/12/07 10:02:37;;;;;;;7.90;4.07;;;;;;;4.10;100.00;101626.56;5080217;28;20146;-84
2022/12/07 10:05:16;;;;;;;11.70;4.07;;;;;;;4.32;100.00;101627.94;5077115;28;20043;-84
2022/12/07 10:07:42;;;;;;;13.70;3.53;;;;;;;4.38;100.00;101629.16;5077802;28;20028;-84
2022/12/07 10:10:49;;;;;;;13.60;3.40;;;;;;;4.55;100.00;101627.47;5060026;28;20430;-85
2022/12/07 10:13:21;;;;;;;4.55;2.80;;;;;;;4.54;100.00;101623.06;4993297;28;20085;-81
2022/12/07 10:15:52;;;;;;;8.55;2.90;;;;;;;4.64;100.00;101609.53;4975912;28;20038;-84
2022/12/07 10:18:30;;;;;;;10.48;3.13;;;;;;;4.73;100.00;101612.09;5033454;28;20036;-85
2022/12/07 10:21:16;;;;;;;7.77;3.33;;;;;;;4.88;100.00;101606.16;5077618;28;20464;-84
2022/12/07 10:24:05;;;;;;;7.78;2.80;;;;;;;5.20;100.00;101600.09;5077060;28;20024;-85
2022/12/07 10:26:46;;;;;;;11.05;2.80;;;;;;;5.49;100.00;101604.22;5076449;28;20020;-84
2022/12/07 10:29:22;;;;;;;9.32;3.38;;;;;;;5.50;100.00;101605.94;5076311;28;20035;-85
2022/12/07 10:31:57;;;;;;;6.00;2.88;;;;;;;5.32;100.00;101597.97;5076279;28;20039;-84
2022/12/07 10:34:33;;;;;;;9.10;2.70;;;;;;;5.21;100.00;101595.56;5076882;28;20024;-84
2022/12/07 10:37:16;;;;;;;9.57;4.20;;;;;;;5.20;100.00;101594.72;5076267;28;20028;-84
2022/12/07 10:39:52;;;;;;;6.43;3.25;;;;;;;5.23;100.00;101589.00;5076822;28;20050;-84
2022/12/07 10:42:27;;;;;;;5.43;2.65;;;;;;;5.21;100.00;101584.78;5076738;28;20368;-83
2022/12/07 10:45:17;;;;;;;12.27;2.78;;;;;;;5.23;100.00;101586.31;5094240;28;20505;-83
2022/12/07 10:47:52;;;;;;;6.23;2.43;;;;;;;5.31;100.00;101588.19;5076547;28;20160;-83
2022/12/07 10:50:29;;;;;;;7.90;3.00;;;;;;;5.51;100.00;101577.19;5075878;28;20122;-84
2022/12/07 10:53:13;;;;;;;5.95;2.58;;;;;;;5.87;100.00;101587.69;5094186;28;20066;-84
2022/12/07 10:56:09;;;;;;;7.82;2.80;;;;;;;6.26;100.00;101578.97;5076640;28;20040;-84
2022/12/07 10:58:34;;;;;;;13.98;3.67;;;;;;;6.62;100.00;101565.94;5075857;28;20028;-85
2022/12/07 11:01:19;;;;;;;18.43;3.73;;;;;;;6.88;99.72;101567.59;5076034;28;20059;-84
2022/12/07 11:04:01;;;;;;;8.52;2.92;;;;;;;7.16;98.24;101575.22;5072138;28;20105;-84
2022/12/07 11:06:52;;;;;;;8.25;2.28;;;;;;;7.40;95.33;101560.78;5072878;28;20036;-84
2022/12/07 11:09:58;;;;;;;8.57;2.95;;;;;;;7.44;94.12;101555.84;5041885;28;20408;-83
2022/12/07 11:12:23;;;;;;;7.35;2.65;;;;;;;7.47;94.05;101556.38;5073783;28;20056;-83
2022/12/07 11:15:11;;;;;;;8.97;2.20;;;;;;;7.52;94.06;101553.13;5072133;28;20032;-83
2022/12/07 11:18:15;;;;;;;6.15;1.95;;;;;;;7.38;91.96;101547.47;5072255;28;20048;-83
2022/12/07 11:21:02;;;;;;;7.35;2.15;;;;;;;7.27;92.05;101544.31;5072666;28;20032;-83
2022/12/07 11:24:19;;;;;;;9.18;2.10;;;;;;;7.39;92.80;101545.59;5073601;28;20032;-83
2022/12/07 11:27:02;;;;;;;6.72;1.73;;;;;;;7.59;91.89;101539.72;4976115;28;20113;-84
2022/12/07 11:29:55;;;;;;;8.80;2.00;;;;;;;7.86;93.01;101535.69;5072318;28;20052;-84
2022/12/07 11:32:33;;;;;;;7.85;1.90;;;;;;;8.03;91.83;101533.66;5072661;28;20119;-83
2022/12/07 11:34:58;;;;;;;6.00;1.60;;;;;;;7.93;88.08;101533.94;5073336;28;20039;-83